createdAt,value
2022-08-23T00:01:58.559Z,97849.75
2022-08-23T00:04:35.302Z,97854.03
2022-08-23T00:07:12.924Z,97848.88
2022-08-23T00:09:46.881Z,97854.75
2022-08-23T00:12:24.651Z,97849.63
2022-08-23T00:14:59.603Z,97849.53
2022-08-23T00:17:34.769Z,97845.94
2022-08-23T00:20:12.907Z,97849.97
2022-08-23T00:22:46.424Z,97847.25
2022-08-23T00:25:20.417Z,97848.44
2022-08-23T00:27:54.108Z,97854.97
2022-08-23T00:30:29.535Z,97855.59
2022-08-23T00:33:03.026Z,97855.50
2022-08-23T00:35:36.816Z,97854.84
2022-08-23T00:38:33.389Z,97845.53
2022-08-23T00:41:05.127Z,97843.81
2022-08-23T00:43:59.763Z,97848.03
2022-08-23T00:47:03.633Z,97846.28
2022-08-23T00:49:39.288Z,97838.50
2022-08-23T00:52:23.074Z,97844.53
2022-08-23T00:54:58.328Z,97838.38
2022-08-23T00:57:32.908Z,97832.19
2022-08-23T01:00:09.147Z,97837.28
2022-08-23T01:02:46.619Z,97828.91
2022-08-23T01:05:21.403Z,97835.47
2022-08-23T01:08:00.437Z,97833.00
2022-08-23T01:10:43.163Z,97827.72
2022-08-23T01:13:21.375Z,97826.94
2022-08-23T01:16:01.233Z,97822.44
2022-08-23T01:18:37.603Z,97830.19
2022-08-23T01:21:17.903Z,97835.56
2022-08-23T01:23:58.373Z,97839.81
2022-08-23T01:26:35.387Z,97836.06
2022-08-23T01:29:09.592Z,97831.69
2022-08-23T01:31:43.642Z,97833.25
2022-08-23T01:34:18.453Z,97833.25
2022-08-23T01:36:51.991Z,97836.84
2022-08-23T01:39:27.900Z,97838.75
2022-08-23T01:42:01.424Z,97844.28
2022-08-23T01:44:41.258Z,97849.56
2022-08-23T01:47:15.121Z,97842.53
2022-08-23T01:49:48.780Z,97847.78
2022-08-23T01:52:22.419Z,97847.66
2022-08-23T01:54:57.670Z,97844.97
2022-08-23T01:57:31.382Z,97843.41
2022-08-23T02:00:08.794Z,97839.91
2022-08-23T02:02:42.806Z,97840.66
2022-08-23T02:05:18.987Z,97843.47
2022-08-23T02:07:52.898Z,97843.94
2022-08-23T02:10:28.122Z,97846.44
2022-08-23T02:13:01.423Z,97840.06
2022-08-23T02:15:34.827Z,97842.44
2022-08-23T02:18:08.202Z,97845.94
2022-08-23T02:20:46.778Z,97845.00
2022-08-23T02:23:22.574Z,97846.69
2022-08-23T02:25:57.646Z,97849.06
2022-08-23T02:28:30.787Z,97850.84
2022-08-23T02:31:03.991Z,97847.50
2022-08-23T02:36:29.732Z,97854.94
2022-08-23T02:39:02.989Z,97855.59
2022-08-23T02:41:38.503Z,97853.03
2022-08-23T02:44:12.600Z,97854.84
2022-08-23T02:46:45.795Z,97850.31
2022-08-23T02:49:21.341Z,97852.91
2022-08-23T02:51:54.858Z,97853.44
2022-08-23T02:54:27.952Z,97850.66
2022-08-23T02:57:02.572Z,97856.63
2022-08-23T02:59:35.971Z,97860.22
2022-08-23T03:02:09.391Z,97860.56
2022-08-23T03:04:42.936Z,97863.34
2022-08-23T03:07:17.137Z,97855.63
2022-08-23T03:09:50.261Z,97864.28
2022-08-23T03:12:25.034Z,97858.84
2022-08-23T03:14:58.142Z,97866.59
2022-08-23T03:17:31.276Z,97867.66
2022-08-23T03:20:06.117Z,97863.19
2022-08-23T03:22:39.257Z,97865.16
2022-08-23T03:25:21.750Z,97867.66
2022-08-23T03:27:56.328Z,97860.09
2022-08-23T03:30:29.435Z,97865.47
2022-08-23T03:33:02.988Z,97866.59
2022-08-23T03:35:36.099Z,97862.19
2022-08-23T03:38:09.579Z,97874.03
2022-08-23T03:40:42.867Z,97869.81
2022-08-23T03:43:17.295Z,97877.13
2022-08-23T03:45:50.494Z,97875.38
2022-08-23T03:48:23.775Z,97868.09
2022-08-23T03:50:56.898Z,97872.09
2022-08-23T03:53:30.157Z,97875.50
2022-08-23T03:56:03.596Z,97871.09
2022-08-23T03:58:38.042Z,97872.84
2022-08-23T04:01:11.106Z,97880.50
2022-08-23T04:03:45.228Z,97883.88
2022-08-23T04:06:21.296Z,97876.09
2022-08-23T04:08:56.108Z,97880.50
2022-08-23T04:11:30.828Z,97880.44
2022-08-23T04:14:06.819Z,97885.50
2022-08-23T04:16:41.091Z,97884.75
2022-08-23T04:19:16.748Z,97893.41
2022-08-23T04:21:54.457Z,97898.81
2022-08-23T04:24:28.383Z,97898.03
2022-08-23T04:27:01.943Z,97901.00
2022-08-23T04:29:38.182Z,97902.59
2022-08-23T04:32:12.917Z,97906.13
2022-08-23T04:34:51.488Z,97910.56
2022-08-23T04:37:25.443Z,97911.06
2022-08-23T04:40:16.563Z,97918.47
2022-08-23T04:42:49.941Z,97917.97
2022-08-23T04:45:25.056Z,97932.66
2022-08-23T04:47:58.405Z,97921.50
2022-08-23T04:50:31.758Z,97914.97
2022-08-23T04:53:05.314Z,97918.59
2022-08-23T04:55:39.258Z,97923.16
2022-08-23T04:58:12.619Z,97927.78
2022-08-23T05:00:51.654Z,97928.56
2022-08-23T05:03:25.468Z,97934.59
2022-08-23T05:05:59.344Z,97935.50
2022-08-23T05:08:33.540Z,97943.06
2022-08-23T05:11:09.315Z,97950.63
2022-08-23T05:13:42.905Z,97956.53
2022-08-23T05:16:18.728Z,97954.03
2022-08-23T05:18:52.102Z,97961.94
2022-08-23T05:21:26.468Z,97959.84
2022-08-23T05:23:59.576Z,97957.44
2022-08-23T05:26:32.673Z,97956.63
2022-08-23T05:29:05.923Z,97952.53
2022-08-23T05:31:40.402Z,97961.16
2022-08-23T05:34:13.744Z,97961.50
2022-08-23T05:36:51.636Z,97961.41
2022-08-23T05:39:36.308Z,97952.69
2022-08-23T05:42:13.730Z,97964.91
2022-08-23T05:44:46.873Z,97962.84
2022-08-23T05:47:24.974Z,97965.81
2022-08-23T05:49:58.147Z,97961.16
2022-08-23T05:52:31.207Z,97964.22
2022-08-23T05:55:04.890Z,97968.28
2022-08-23T05:57:38.952Z,97959.06
2022-08-23T06:00:15.025Z,97963.94
2022-08-23T06:02:50.728Z,97968.69
2022-08-23T06:05:23.835Z,97972.09
2022-08-23T06:07:58.056Z,97972.06
2022-08-23T06:10:32.348Z,97969.19
2022-08-23T06:13:05.407Z,97974.34
2022-08-23T06:15:44.386Z,97970.25
2022-08-23T06:18:20.321Z,97976.53
2022-08-23T06:21:02.334Z,97966.34
2022-08-23T06:23:35.775Z,97970.00
2022-08-23T06:26:12.673Z,97968.81
2022-08-23T06:28:50.953Z,97971.59
2022-08-23T06:31:45.041Z,97972.19
2022-08-23T06:34:23.435Z,97970.56
2022-08-23T06:36:59.128Z,97963.00
2022-08-23T06:39:37.224Z,97969.31
2022-08-23T06:42:37.663Z,97963.59
2022-08-23T06:45:08.163Z,97966.28
2022-08-23T06:47:41.679Z,97972.44
2022-08-23T06:50:16.180Z,97975.81
2022-08-23T06:52:49.447Z,97976.81
2022-08-23T06:55:23.546Z,97976.03
2022-08-23T06:57:56.827Z,97980.44
2022-08-23T07:00:29.897Z,97985.69
2022-08-23T07:03:03.330Z,97980.41
2022-08-23T07:05:37.965Z,97979.53
2022-08-23T07:08:11.049Z,97986.59
2022-08-23T07:10:44.200Z,97978.72
2022-08-23T07:13:18.692Z,97983.97
2022-08-23T07:15:52.050Z,97979.56
2022-08-23T07:18:25.831Z,97976.91
2022-08-23T07:21:02.879Z,97979.59
2022-08-23T07:23:36.420Z,97980.28
2022-08-23T07:26:14.077Z,97983.38
2022-08-23T07:28:47.144Z,97989.44
2022-08-23T07:31:27.264Z,97984.16
2022-08-23T07:34:03.094Z,97986.50
2022-08-23T07:36:38.362Z,97980.66
2022-08-23T07:39:12.293Z,97990.78
2022-08-23T07:41:46.835Z,97987.91
2022-08-23T07:44:23.540Z,97988.34
2022-08-23T07:47:00.793Z,97990.22
2022-08-23T07:49:33.966Z,97983.00
2022-08-23T07:52:08.507Z,97993.59
2022-08-23T07:54:41.598Z,97991.66
2022-08-23T07:57:21.350Z,97989.88
2022-08-23T07:59:54.741Z,97990.53
2022-08-23T08:02:27.882Z,97996.47
2022-08-23T08:05:00.980Z,97999.69
2022-08-23T08:07:37.745Z,97995.84
2022-08-23T08:10:11.727Z,97995.84
2022-08-23T08:12:44.792Z,98004.78
2022-08-23T08:15:18.287Z,98002.97
2022-08-23T08:17:52.517Z,98000.94
2022-08-23T08:20:28.167Z,98004.59
2022-08-23T08:23:03.871Z,98010.25
2022-08-23T08:25:36.939Z,97999.66
2022-08-23T08:28:15.577Z,98006.34
2022-08-23T08:30:49.083Z,98008.81
2022-08-23T08:33:22.150Z,98007.72
2022-08-23T08:35:59.211Z,98003.34
2022-08-23T08:38:48.034Z,98010.94
2022-08-23T08:41:44.003Z,98009.44
2022-08-23T08:44:35.861Z,98005.44
2022-08-23T08:47:15.565Z,98004.22
2022-08-23T08:49:56.401Z,98004.84
2022-08-23T08:52:34.680Z,98003.44
2022-08-23T08:55:14.188Z,98006.38
2022-08-23T08:57:50.531Z,98006.00
2022-08-23T09:00:27.041Z,98006.06
2022-08-23T09:03:02.752Z,98012.03
2022-08-23T09:05:40.602Z,98005.03
2022-08-23T09:08:35.161Z,98001.06
2022-08-23T09:11:17.851Z,98004.91
2022-08-23T09:14:20.679Z,98006.78
2022-08-23T09:16:56.187Z,98006.66
2022-08-23T09:19:30.038Z,98002.34
2022-08-23T09:22:06.814Z,98011.13
2022-08-23T09:24:40.446Z,98004.13
2022-08-23T09:27:14.983Z,98008.50
2022-08-23T09:29:57.456Z,98010.81
2022-08-23T09:32:34.505Z,98003.28
2022-08-23T09:35:14.071Z,98001.69
2022-08-23T09:38:00.239Z,98008.28
2022-08-23T09:40:41.192Z,97995.88
2022-08-23T09:43:19.279Z,98000.03
2022-08-23T09:46:00.910Z,98004.31
2022-08-23T09:48:40.695Z,98002.53
2022-08-23T09:51:25.242Z,98003.00
2022-08-23T09:54:09.094Z,98003.22
2022-08-23T09:56:45.262Z,97998.94
2022-08-23T09:59:34.273Z,97995.47
2022-08-23T10:02:18.545Z,97988.50
2022-08-23T10:05:14.754Z,97985.44
2022-08-23T10:08:10.819Z,97984.53
2022-08-23T10:11:00.978Z,97989.25
2022-08-23T10:13:44.139Z,97989.50
2022-08-23T10:16:32.897Z,97988.22
2022-08-23T10:19:18.077Z,97987.50
2022-08-23T10:21:59.369Z,97991.78
2022-08-23T10:24:44.875Z,97990.78
2022-08-23T10:27:50.378Z,97985.84
2022-08-23T10:30:38.469Z,97986.06
2022-08-23T10:33:21.653Z,97985.94
2022-08-23T10:36:04.941Z,97986.47
2022-08-23T10:38:45.104Z,97981.34
2022-08-23T10:41:45.749Z,97981.56
2022-08-23T10:44:30.477Z,97971.00
2022-08-23T10:47:20.716Z,97978.66
2022-08-23T10:49:56.799Z,97973.44
2022-08-23T10:52:36.042Z,97967.09
2022-08-23T10:55:34.956Z,97969.28
2022-08-23T10:58:14.352Z,97960.19
2022-08-23T11:00:47.621Z,97962.81
2022-08-23T11:03:29.153Z,97961.66
2022-08-23T11:06:29.205Z,97950.47
2022-08-23T11:09:06.395Z,97955.91
2022-08-23T11:11:46.456Z,97954.97
2022-08-23T11:14:35.108Z,97949.97
2022-08-23T11:17:11.788Z,97953.78
2022-08-23T11:19:52.630Z,97954.03
2022-08-23T11:22:30.130Z,97945.41
2022-08-23T11:25:06.053Z,97939.63
2022-08-23T11:27:41.876Z,97934.34
2022-08-23T11:30:46.980Z,97932.84
2022-08-23T11:33:24.917Z,97939.13
2022-08-23T11:36:21.787Z,97941.03
2022-08-23T11:39:11.161Z,97939.47
2022-08-23T11:42:07.172Z,97938.84
2022-08-23T11:44:48.548Z,97937.84
2022-08-23T11:47:31.132Z,97937.78
2022-08-23T11:50:26.150Z,97935.50
2022-08-23T11:53:22.754Z,97940.38
2022-08-23T11:56:17.664Z,97940.09
2022-08-23T11:59:15.462Z,97934.88
2022-08-23T12:01:48.877Z,97938.09
2022-08-23T12:04:39.149Z,97930.31
2022-08-23T12:07:13.550Z,97931.28
2022-08-23T12:09:57.185Z,97915.41
2022-08-23T12:12:40.155Z,97915.28
2022-08-23T12:15:18.317Z,97920.75
2022-08-23T12:18:13.927Z,97919.66
2022-08-23T12:20:48.789Z,97920.88
2022-08-23T12:23:22.676Z,97922.75
2022-08-23T12:26:13.986Z,97927.31
2022-08-23T12:28:56.370Z,97925.25
2022-08-23T12:31:36.723Z,97922.69
2022-08-23T12:34:23.049Z,97913.84
2022-08-23T12:37:11.057Z,97916.91
2022-08-23T12:39:52.963Z,97914.84
2022-08-23T12:42:29.929Z,97914.44
2022-08-23T12:45:10.393Z,97907.13
2022-08-23T12:47:45.819Z,97906.16
2022-08-23T12:50:32.656Z,97904.56
2022-08-23T12:53:10.904Z,97909.22
2022-08-23T12:55:48.554Z,97907.50
2022-08-23T12:58:33.202Z,97913.03
2022-08-23T13:01:19.393Z,97909.50
2022-08-23T13:03:57.679Z,97912.59
2022-08-23T13:06:36.248Z,97905.41
2022-08-23T13:09:18.951Z,97907.28
2022-08-23T13:11:53.156Z,97901.53
2022-08-23T13:14:30.983Z,97898.06
2022-08-23T13:17:20.075Z,97903.03
2022-08-23T13:20:13.448Z,97911.88
2022-08-23T13:23:00.585Z,97899.69
2022-08-23T13:25:38.905Z,97903.31
2022-08-23T13:28:25.536Z,97895.41
2022-08-23T13:31:04.295Z,97899.50
2022-08-23T13:33:40.963Z,97896.00
2022-08-23T13:36:17.153Z,97888.72
2022-08-23T13:38:51.046Z,97891.47
2022-08-23T13:41:32.777Z,97887.88
2022-08-23T13:44:16.984Z,97884.59
2022-08-23T13:46:52.137Z,97895.34
2022-08-23T13:49:29.595Z,97881.28
2022-08-23T13:55:03.795Z,97884.00
2022-08-23T13:57:41.109Z,97891.91
2022-08-23T14:00:19.304Z,97886.56
2022-08-23T14:02:53.258Z,97881.50
2022-08-23T14:05:27.763Z,97884.97
2022-08-23T14:08:05.954Z,97884.00
2022-08-23T14:10:39.484Z,97883.06
2022-08-23T14:13:12.570Z,97868.69
2022-08-23T14:19:16.648Z,97872.53
2022-08-23T14:21:34.221Z,97880.09
2022-08-23T14:24:07.705Z,97873.88
2022-08-23T14:26:51.780Z,97880.25
2022-08-23T14:29:28.952Z,97871.59
2022-08-23T14:32:02.623Z,97875.44
2022-08-23T14:34:35.737Z,97872.75
2022-08-23T14:40:03.524Z,97869.31
2022-08-23T14:42:36.744Z,97871.75
2022-08-23T14:45:10.884Z,97870.34
2022-08-23T14:47:44.503Z,97872.28
2022-08-23T14:50:17.744Z,97876.03
2022-08-23T14:52:52.217Z,97871.00
2022-08-23T14:55:25.493Z,97872.81
2022-08-23T14:58:00.065Z,97873.56
2022-08-23T15:00:35.371Z,97871.84
2022-08-23T15:03:10.544Z,97869.22
2022-08-23T15:05:43.738Z,97867.31
2022-08-23T15:08:18.409Z,97863.09
2022-08-23T15:12:57.603Z,97863.16
2022-08-23T15:13:55.262Z,97874.69
2022-08-23T15:16:29.660Z,97877.38
2022-08-23T15:19:03.310Z,97875.72
2022-08-23T15:21:36.473Z,97874.69
2022-08-23T15:24:11.119Z,97873.75
2022-08-23T15:26:44.247Z,97883.06
2022-08-23T15:29:18.967Z,97879.69
2022-08-23T15:31:52.503Z,97875.56
2022-08-23T15:34:25.710Z,97866.75
2022-08-23T15:36:58.984Z,97863.22
2022-08-23T15:39:33.477Z,97858.84
2022-08-23T15:42:07.137Z,97864.72
2022-08-23T15:44:40.250Z,97867.94
2022-08-23T15:47:28.457Z,97867.03
2022-08-23T15:50:02.850Z,97862.84
2022-08-23T15:52:35.942Z,97865.31
2022-08-23T15:55:10.938Z,97857.75
2022-08-23T15:57:48.818Z,97857.91
2022-08-23T16:00:24.887Z,97863.25
2022-08-23T16:03:19.492Z,97858.91
2022-08-23T16:05:54.742Z,97863.16
2022-08-23T16:08:32.865Z,97856.22
2022-08-23T16:11:12.192Z,97856.31
2022-08-23T16:13:48.421Z,97863.41
2022-08-23T16:16:30.216Z,97852.88
2022-08-23T16:19:03.359Z,97857.34
2022-08-23T16:21:36.992Z,97846.13
2022-08-23T16:24:10.269Z,97859.28
2022-08-23T16:26:46.710Z,97851.38
2022-08-23T16:29:21.530Z,97857.06
2022-08-23T16:31:58.398Z,97855.53
2022-08-23T16:34:37.181Z,97850.47
2022-08-23T16:37:14.846Z,97850.59
2022-08-23T16:39:50.947Z,97858.25
2022-08-23T16:42:28.824Z,97853.09
2022-08-23T16:45:07.211Z,97854.06
2022-08-23T16:47:46.673Z,97858.38
2022-08-23T16:50:23.845Z,97866.41
2022-08-23T16:52:57.022Z,97861.13
2022-08-23T16:55:30.117Z,97864.59
2022-08-23T16:58:04.958Z,97862.09
2022-08-23T17:00:38.612Z,97864.81
2022-08-23T17:03:11.698Z,97857.00
2022-08-23T17:05:44.775Z,97861.31
2022-08-23T17:08:17.930Z,97860.44
2022-08-23T17:10:51.502Z,97855.22
2022-08-23T17:13:26.328Z,97865.88
2022-08-23T17:16:00.144Z,97858.81
2022-08-23T17:18:33.271Z,97869.47
2022-08-23T17:21:07.081Z,97865.22
2022-08-23T17:23:40.880Z,97869.84
2022-08-23T17:26:14.002Z,97868.16
2022-08-23T17:28:48.813Z,97876.06
2022-08-23T17:31:21.889Z,97874.41
2022-08-23T17:33:56.740Z,97874.56
2022-08-23T17:36:35.898Z,97867.69
2022-08-23T17:39:13.503Z,97883.59
2022-08-23T17:41:46.949Z,97881.97
2022-08-23T17:44:21.441Z,97894.28
2022-08-23T17:46:54.610Z,97884.78
2022-08-23T17:49:27.866Z,97891.88
2022-08-23T17:52:00.993Z,97901.63
2022-08-23T17:54:34.115Z,97895.59
2022-08-23T17:57:07.636Z,97906.13
2022-08-23T17:59:42.086Z,97912.31
2022-08-23T18:02:15.765Z,97918.44
2022-08-23T18:04:49.933Z,97921.13
2022-08-23T18:07:23.137Z,97922.88
2022-08-23T18:09:56.235Z,97931.59
2022-08-23T18:12:29.404Z,97935.09
2022-08-23T18:15:04.560Z,97930.75
2022-08-23T18:17:39.792Z,97936.88
2022-08-23T18:20:13.212Z,97949.91
2022-08-23T18:22:46.286Z,97942.03
2022-08-23T18:25:19.545Z,97943.75
2022-08-23T18:28:07.941Z,97959.44
2022-08-23T18:30:50.526Z,97962.84
2022-08-23T18:33:31.513Z,97958.44
2022-08-23T18:36:05.903Z,97961.00
2022-08-23T18:38:38.994Z,97966.16
2022-08-23T18:41:14.150Z,97971.34
2022-08-23T18:43:47.783Z,97966.06
2022-08-23T18:46:22.287Z,97968.69
2022-08-23T18:48:55.949Z,97974.69
2022-08-23T18:51:29.661Z,97968.47
2022-08-23T18:54:02.956Z,97971.84
2022-08-23T18:56:36.183Z,97978.72
2022-08-23T18:59:09.327Z,97974.31
2022-08-23T19:01:45.253Z,97982.03
2022-08-23T19:04:19.661Z,97992.41
2022-08-23T19:06:54.153Z,97995.88
2022-08-23T19:09:27.554Z,98002.72
2022-08-23T19:12:01.332Z,98006.94
2022-08-23T19:14:35.749Z,98010.34
2022-08-23T19:17:10.527Z,98012.06
2022-08-23T19:19:44.047Z,98018.91
2022-08-23T19:22:17.341Z,98011.00
2022-08-23T19:24:50.533Z,98017.00
2022-08-23T19:27:23.600Z,98025.59
2022-08-23T19:29:56.709Z,98023.69
2022-08-23T19:32:32.375Z,98032.25
2022-08-23T19:35:06.837Z,98033.72
2022-08-23T19:37:40.125Z,98040.63
2022-08-23T19:40:15.293Z,98033.53
2022-08-23T19:42:48.679Z,98035.22
2022-08-23T19:45:22.149Z,98050.75
2022-08-23T19:47:59.621Z,98036.69
2022-08-23T19:50:32.945Z,98049.66
2022-08-23T19:53:06.139Z,98045.94
2022-08-23T19:55:41.806Z,98054.72
2022-08-23T19:58:17.884Z,98056.41
2022-08-23T20:00:50.977Z,98050.16
2022-08-23T20:03:26.423Z,98053.44
2022-08-23T20:05:59.475Z,98058.66
2022-08-23T20:08:32.686Z,98057.75
2022-08-23T20:11:05.799Z,98066.38
2022-08-23T20:13:38.886Z,98073.13
2022-08-23T20:16:12.178Z,98078.13
2022-08-23T20:18:47.393Z,98081.59
2022-08-23T20:21:23.709Z,98085.75
2022-08-23T20:24:03.843Z,98090.03
2022-08-23T20:26:40.687Z,98088.25
2022-08-23T20:29:17.921Z,98089.97
2022-08-23T20:31:56.415Z,98086.28
2022-08-23T20:34:30.871Z,98098.25
2022-08-23T20:37:05.284Z,98098.06
2022-08-23T20:39:38.785Z,98098.81
2022-08-23T20:42:11.899Z,98094.28
2022-08-23T20:44:45.590Z,98097.63
2022-08-23T20:47:18.970Z,98092.22
2022-08-23T20:49:53.411Z,98094.66
2022-08-23T20:52:26.530Z,98099.66
2022-08-23T20:54:59.611Z,98096.81
2022-08-23T20:57:38.583Z,98095.72
2022-08-23T21:00:13.399Z,98097.38
2022-08-23T21:02:46.708Z,98104.13
2022-08-23T21:05:21.215Z,98103.09
2022-08-23T21:07:56.789Z,98104.63
2022-08-23T21:10:30.185Z,98097.44
2022-08-23T21:13:04.112Z,98107.72
2022-08-23T21:15:43.577Z,98106.56
2022-08-23T21:20:51.320Z,98107.47
2022-08-23T21:23:24.787Z,98103.41
2022-08-23T21:25:59.919Z,98098.78
2022-08-23T21:28:33.911Z,98098.38
2022-08-23T21:31:09.066Z,98102.50
2022-08-23T21:33:42.819Z,98099.03
2022-08-23T21:36:18.428Z,98099.75
2022-08-23T21:38:52.604Z,98096.97
2022-08-23T21:41:34.660Z,98090.03
2022-08-23T21:44:11.229Z,98103.78
2022-08-23T21:46:45.266Z,98095.84
2022-08-23T21:49:20.859Z,98108.41
2022-08-23T21:51:55.341Z,98112.72
2022-08-23T21:54:28.611Z,98105.75
2022-08-23T21:57:01.664Z,98111.78
2022-08-23T21:59:35.084Z,98097.03
2022-08-23T22:02:08.242Z,98103.91
2022-08-23T22:04:41.553Z,98096.00
2022-08-23T22:07:15.959Z,98096.97
2022-08-23T22:09:51.417Z,98092.56
2022-08-23T22:12:25.107Z,98087.31
2022-08-23T22:14:58.369Z,98091.63
2022-08-23T22:17:31.534Z,98087.13
2022-08-23T22:20:07.191Z,98092.09
2022-08-23T22:22:43.527Z,98080.81
2022-08-23T22:25:18.536Z,98085.19
2022-08-23T22:27:51.715Z,98087.31
2022-08-23T22:30:27.297Z,98089.91
2022-08-23T22:33:01.852Z,98090.81
2022-08-23T22:35:36.421Z,98080.47
2022-08-23T22:38:14.066Z,98088.34
2022-08-23T22:40:52.712Z,98081.50
2022-08-23T22:43:26.141Z,98073.47
2022-08-23T22:46:02.741Z,98076.69
2022-08-23T22:48:36.393Z,98075.59
2022-08-23T22:51:12.780Z,98073.66
2022-08-23T22:53:51.891Z,98073.66
2022-08-23T22:56:29.201Z,98071.81
2022-08-23T22:59:02.466Z,98075.31
2022-08-23T23:01:39.684Z,98082.16
2022-08-23T23:04:15.267Z,98080.94
2022-08-23T23:06:48.636Z,98080.03
2022-08-23T23:09:23.697Z,98076.53
2022-08-23T23:11:58.090Z,98076.44
2022-08-23T23:14:31.372Z,98077.13
2022-08-23T23:17:04.972Z,98079.56
2022-08-23T23:19:55.723Z,98076.66
2022-08-23T23:22:28.926Z,98067.00
2022-08-23T23:25:04.484Z,98068.56
2022-08-23T23:27:37.663Z,98064.88
2022-08-23T23:30:12.135Z,98071.78
2022-08-23T23:32:45.494Z,98074.16
2022-08-23T23:35:18.977Z,98067.09
2022-08-23T23:37:52.738Z,98063.41
2022-08-23T23:40:28.396Z,98068.44
2022-08-23T23:43:02.109Z,98073.50
2022-08-23T23:45:35.828Z,98077.63
2022-08-23T23:48:09.197Z,98071.44
2022-08-23T23:50:45.036Z,98072.19
2022-08-23T23:53:20.291Z,98074.59
2022-08-23T23:56:02.495Z,98076.38
2022-08-23T23:58:37.874Z,98082.28
